Latest Coastal Weather Observations for Esperance

IDW60701

Issued at 12:45 pm WST Saturday 2 August 2014 (issued every 10 minutes, with the page automatically refreshed every 10 minutes)

About coastal observations | Map of coastal stations | Coastal observations for WA | Marine services | Other Formats
Station Details ID: 009789 Name: ESPERANCE Lat: -33.83 Lon: 121.89 Height: 25.0 m
Data from the previous 72 hours. | See also: Recent months at Esperance
Date/Time
WST
Temp

°C
Wind Pressure Rain
since 9am
mm
Weather Cloud Vis
km
Sea
Height
m
Swell
Dir
 
Speed
knots
Gust
knots
hPa Trend Height
m
Period
s
Dir
02/12:30pm 17.9 WNW 13 17 1024.3 - 0.0 - Partly cloudy 10 - - - -
02/12:00pm 17.1 NW 13 17 1024.6 S 0.0 Fine Mostly clear 30 - - - -
02/11:30am 16.1 WNW 15 23 1024.8 - 0.0 - - 10 - - - -
02/11:00am 15.5 NW 16 21 1025.0 - 0.0 - - 10 - - - -
02/10:30am 15.4 NW 15 25 1025.0 - 0.0 - - 10 - - - -
02/10:00am 14.2 NW 13 17 1025.5 - 0.0 - - 10 - - - -
02/09:30am 12.6 NNW 12 19 1025.5 - 0.0 - - 10 - - - -
02/09:00am 11.3 NNW 12 21 1025.6 F 0.0 Fine Clear 30 - - - -
02/08:30am 9.5 NNW 12 17 1025.6 - 0.0 - - 10 - - - -
02/08:00am 8.3 N 12 17 1025.7 - 0.0 - - 10 - - - -
02/07:30am 7.1 N 12 16 1025.5 - 0.0 - - 10 - - - -
02/07:00am 6.2 N 11 14 1025.7 - 0.0 - - 10 - - - -
02/06:30am 5.9 N 8 11 1025.8 - 0.0 - Mostly clear 10 - - - -
02/06:00am 5.5 N 9 12 1025.7 R 0.0 Fine Mostly clear 25 - - - -
02/05:30am 5.6 N 7 11 1025.6 - 0.0 - - 10 - - - -
02/05:00am 5.8 N 9 12 1025.4 - 0.0 - - 10 - - - -
02/04:30am 5.5 N 8 10 1025.5 - 0.0 - - 10 - - - -
02/04:00am 4.9 N 10 13 1025.1 - 0.0 - - 10 - - - -
02/03:30am 5.0 N 11 14 1024.8 - 0.0 - - 10 - - - -
02/03:00am 5.5 N 11 16 1024.7 F 0.0 - - 10 - - - -
02/02:30am 5.0 N 10 13 1024.5 - 0.0 - - 10 - - - -
02/02:00am 5.1 N 10 12 1025.1 - 0.0 - - 10 - - - -
02/01:30am 4.8 N 8 10 1025.4 - 0.0 - - 10 - - - -
02/01:00am 4.9 N 6 8 1025.7 - 0.0 - - 10 - - - -
02/12:30am 5.3 N 5 6 1025.9 - 0.0 - - 10 - - - -
02/12:00am 5.8 NNE 5 6 1026.3 F 0.0 - - 10 - - - -
 
Date/Time
WST
Temp

°C
Wind Pressure Rain
since 9am
mm
Weather Cloud Vis
km
Sea
Height
m
Swell
Dir
 
Speed
knots
Gust
knots
hPa Trend Height
m
Period
s
Dir
01/11:30pm 6.2 N 4 5 1026.7 - 0.0 - - 10 - - - -
01/11:00pm 6.7 N 5 7 1027.0 - 0.0 - - 10 - - - -
01/10:30pm 7.2 NNE 7 9 1027.3 - 0.0 - - 10 - - - -
01/10:00pm 7.2 NNE 6 8 1027.4 - 0.0 - - 10 - - - -
01/09:30pm 7.1 NNE 6 7 1027.5 - 0.0 - - 10 - - - -
01/09:00pm 7.3 NNE 6 7 1027.5 F 0.0 - - 10 - - - -
01/08:30pm 7.5 NNE 5 7 1027.6 - 0.0 - - 10 - - - -
01/08:00pm 8.1 NNE 5 6 1027.7 - 0.0 - - 10 - - - -
01/07:30pm 8.6 ENE 7 8 1027.9 - 0.0 - - 10 - - - -
01/07:00pm 9.5 N 3 5 1027.9 - 0.0 - - 10 - - - -
01/06:30pm 10.2 N 4 5 1027.8 - 0.0 - - 10 - - - -
01/06:00pm 11.2 N 4 5 1027.7 F 0.0 - Mostly clear 10 - - - -
01/05:30pm 11.5 NNW 4 5 1027.6 - 0.0 - - 10 - - - -
01/05:00pm 13.1 NNE 7 11 1027.5 - 0.0 - Partly cloudy 10 - - - -
01/04:30pm 13.9 NNE 5 7 1027.5 - 0.0 - Partly cloudy 10 - - - -
01/04:00pm 13.5 N 5 6 1027.6 - 0.0 - Mostly cloudy 10 - - - -
01/03:30pm 13.8 NNW 6 8 1027.6 - 0.0 - Mostly cloudy 10 - - - -
01/03:00pm 13.7 N 8 11 1027.6 F 0.0 Fine Mostly cloudy 25 - - - -
01/02:30pm 13.9 NNW 6 9 1027.6 - 0.0 - Mostly clear 10 - - - -
01/02:00pm 13.7 NNE 3 6 1027.6 - 0.0 - Mostly clear 10 - - - -
01/01:30pm 13.6 NW 1 3 1028.0 - 0.0 - Mostly clear 10 - - - -
01/01:00pm 13.0 W 5 8 1028.5 - 0.0 - Partly cloudy 10 - - - -
01/12:30pm 13.2 WNW 6 9 1028.8 - 0.0 - Mostly clear 10 - - - -
01/12:00pm 13.2 WNW 6 8 1029.3 R 0.0 Fine Mostly cloudy 25 - - - -
01/11:30am 12.9 NW 7 9 1029.7 - 0.0 - Mostly clear 10 - - - -
01/11:00am 12.8 WNW 5 6 1029.7 - 0.0 - Mostly clear 10 - - - -
01/10:30am 14.0 WNW 6 9 1030.0 - 0.0 - Mostly clear 10 - - - -
01/10:00am 13.4 NW 7 9 1030.1 - 0.0 - Mostly clear 10 - - - -
01/09:30am 11.8 NW 7 9 1030.1 - 0.0 - Mostly clear 10 - - - -
01/09:00am 10.3 N 7 8 1030.2 R 0.4 Fine Partly cloudy 20 - - - -
01/08:58am 10.2 N 6 8 1030.2 - 0.4 - Cloudy 10 - - - -
01/08:30am 9.7 N 5 6 1030.0 - 0.2 Showers Mostly clear 7 - - - -
01/08:00am 9.6 WSW 2 4 1029.6 - 0.2 - Partly cloudy 4 - - - -
01/07:47am 9.8 WNW 3 4 1029.5 - 0.2 Showers Mostly clear 7 - - - -
01/07:30am 9.7 ENE 4 6 1029.2 - 0.2 - Mostly clear 10 - - - -
01/07:00am 9.6 N 4 5 1028.7 - 0.2 - Mostly cloudy 10 - - - -
01/06:30am 9.9 NNW 4 5 1028.5 - 0.2 - Partly cloudy 10 - - - -
01/06:00am 10.1 WNW 4 5 1028.1 R 0.2 Drizzle Mostly cloudy 20 - - - -
01/05:30am 10.2 SSW 3 5 1027.8 - 0.2 - Cloudy 10 - - - -
01/05:00am 10.4 W 5 7 1027.5 - 0.2 - Cloudy 10 - - - -
01/04:30am 10.3 NW 3 5 1027.3 - 0.2 - Cloudy 10 - - - -
01/04:00am 10.3 W 4 5 1027.2 - 0.2 - Cloudy 10 - - - -
01/03:30am 10.5 SW 3 4 1027.3 - 0.2 - Partly cloudy 10 - - - -
01/03:00am 10.8 W 6 8 1027.3 R 0.2 - Cloudy 10 - - - -
01/02:30am 11.0 SSW 5 10 1027.5 - 0.2 - Partly cloudy 10 - - - -
01/02:00am 11.4 S 8 12 1027.6 - 0.2 - Partly cloudy 10 - - - -
01/01:30am 11.1 SSE 5 6 1027.7 - 0.2 - Partly cloudy 10 - - - -
01/01:00am 11.2 SSE 10 13 1027.8 - 0.2 - Partly cloudy 10 - - - -
01/12:30am 11.3 S 4 7 1027.8 - 0.2 - Partly cloudy 10 - - - -
01/12:00am 11.8 S 9 13 1027.8 R 0.2 - Cloudy 10 - - - -
 
Date/Time
WST
Temp

°C
Wind Pressure Rain
since 9am
mm
Weather Cloud Vis
km
Sea
Height
m
Swell
Dir
 
Speed
knots
Gust
knots
hPa Trend Height
m
Period
s
Dir
31/11:30pm 11.8 S 9 17 1027.8 - 0.2 - Partly cloudy 10 - - - -
31/11:00pm 12.1 S 9 14 1027.9 - 0.2 - Partly cloudy 10 - - - -
31/10:30pm 11.6 S 7 12 1027.8 - 0.2 - Partly cloudy 10 - - - -
31/10:00pm 11.8 S 7 11 1027.7 - 0.2 - Cloudy 10 - - - -
31/09:30pm 11.8 S 11 19 1027.7 - 0.2 - Partly cloudy 10 - - - -
31/09:00pm 11.7 SSW 7 10 1027.7 F 0.2 - Cloudy 10 - - - -
31/08:30pm 11.7 SW 7 12 1027.6 - 0.2 - Partly cloudy 10 - - - -
31/08:00pm 11.5 SW 8 13 1027.5 - 0.2 - Cloudy 10 - - - -
31/07:30pm 11.3 WSW 8 11 1027.4 - 0.2 - Partly cloudy 10 - - - -
31/07:00pm 10.8 SW 8 13 1027.6 - 0.2 - Partly cloudy 10 - - - -
31/06:30pm 11.1 SW 8 14 1027.5 - 0.2 - Partly cloudy 10 - - - -
31/06:00pm 11.0 SW 11 18 1027.3 R 0.2 - Mostly cloudy 10 - - - -
31/05:30pm 11.4 SW 9 14 1027.0 - 0.2 - Partly cloudy 10 - - - -
31/05:00pm 11.8 SW 8 12 1026.7 - 0.2 - Mostly clear 10 - - - -
31/04:30pm 12.1 SW 9 15 1026.3 - 0.2 - Mostly clear 10 - - - -
31/04:00pm 12.4 WSW 12 19 1026.0 - 0.2 - Mostly clear 10 - - - -
31/03:30pm 12.6 WSW 11 16 1025.7 - 0.2 - Cloudy 10 - - - -
31/03:00pm 13.0 SW 10 19 1025.4 R 0.2 Fine Mostly cloudy 20 - - - -
31/02:30pm 13.2 SW 10 16 1025.2 - 0.2 - Mostly clear 10 - - - -
31/02:00pm 12.9 SW 9 18 1024.9 - 0.2 - Partly cloudy 10 - - - -
31/01:30pm 13.2 SW 9 14 1024.8 - 0.2 - Mostly clear 10 - - - -
31/01:00pm 13.2 SSW 12 18 1024.9 - 0.2 - Mostly clear 10 - - - -
31/12:30pm 12.9 SSW 10 16 1024.8 - 0.2 - Mostly clear 10 - - - -
31/12:00pm 12.4 SW 13 22 1024.8 R 0.2 Fine Mostly cloudy 20 - - - -
31/11:30am 13.2 SSW 13 19 1024.7 - 0.2 - Mostly clear 10 - - - -
31/11:00am 12.3 SSW 9 12 1024.7 - 0.2 - Mostly clear 10 - - - -
31/10:30am 12.3 SW 13 21 1024.5 - 0.0 - Mostly clear 10 - - - -
31/10:00am 12.3 SW 12 22 1024.1 - 0.0 - Mostly clear 10 - - - -
31/09:30am 12.4 SW 13 19 1023.7 - 0.0 - Mostly clear 10 - - - -
31/09:00am 12.0 SW 13 21 1023.4 R 1.8 Showers Mostly cloudy 20 - - - -
31/08:30am 11.8 SSW 14 23 1023.0 - 1.8 Showers Mostly clear 10 - - - -
31/08:14am 11.7 SSW 15 25 1022.8 - 1.8 Showers Partly cloudy 10 - - - -
31/08:00am 11.9 SSW 14 21 1022.6 - 1.8 - Partly cloudy 10 - - - -
31/07:30am 11.9 SSW 17 25 1021.8 - 1.8 - Mostly clear 10 - - - -
31/07:04am 11.8 SSW 15 25 1021.5 - 1.8 Showers Mostly clear 10 - - - -
31/07:00am 12.0 SSW 17 25 1021.5 - 1.8 - Mostly clear 10 - - - -
31/06:30am 10.7 SW 13 23 1021.0 - 1.8 Showers Partly cloudy 10 - - - -
31/06:00am 10.8 SSW 17 29 1020.6 R 1.6 Showers Partly cloudy 20 - - - -
31/05:54am 12.5 SW 15 26 1020.4 - 1.6 Showers Partly cloudy 10 - - - -
31/05:30am 11.9 SW 14 22 1019.9 - 1.6 - Partly cloudy 10 - - - -
31/05:00am 11.1 SW 21 38 1019.5 - 1.6 - Partly cloudy 10 - - - -
31/04:57am 11.8 SW 20 38 1019.4 - 1.6 - Partly cloudy 10 - - - -
31/04:30am 12.7 SW 17 27 1019.0 - 1.6 - Partly cloudy 10 - - - -
31/04:01am 13.1 WSW 17 27 1018.6 - 1.6 - Partly cloudy 10 - - - -
31/04:00am 13.1 WSW 17 25 1018.7 - 1.6 - Partly cloudy 10 - - - -
31/03:30am 13.4 SW 20 38 1018.6 - 1.6 - Cloudy 10 - - - -
31/03:24am 13.5 SW 20 38 1018.4 - 1.6 - Partly cloudy 10 - - - -
31/03:00am 13.4 SW 15 25 1018.0 R 1.6 - Cloudy 10 - - - -
31/02:30am 13.3 WSW 17 27 1017.6 - 1.6 - Partly cloudy 8 - - - -
31/02:08am 13.9 SW 15 28 1017.3 - 1.6 - Partly cloudy 10 - - - -
31/02:00am 13.6 SW 14 22 1017.3 - 1.6 - Partly cloudy 10 - - - -
31/01:30am 13.5 SW 16 29 1017.0 - 1.6 - Cloudy 10 - - - -
31/01:18am 13.1 SW 15 25 1017.0 - 1.6 - Partly cloudy 10 - - - -
31/01:10am 12.7 SW 14 23 1016.9 - 1.4 - Partly cloudy 10 - - - -
31/01:00am 12.6 WSW 15 28 1016.9 - 1.4 - Partly cloudy 7 - - - -
31/12:48am 12.3 SW 15 25 1016.8 - 1.4 - Partly cloudy 4 - - - -
31/12:33am 12.6 SW 15 27 1016.5 - 1.2 - Partly cloudy 3 - - - -
31/12:30am 13.0 WSW 13 24 1016.6 - 1.0 - Partly cloudy 4 - - - -
31/12:29am 13.1 WSW 12 24 1016.6 - 1.0 - Partly cloudy 4 - - - -
31/12:15am 13.1 W 15 23 1016.3 - 0.0 - Partly cloudy 7 - - - -
31/12:00am 13.9 WNW 13 21 1016.0 R 0.0 - Cloudy 10 - - - -
 
Date/Time
WST
Temp

°C
Wind Pressure Rain
since 9am
mm
Weather Cloud Vis
km
Sea
Height
m
Swell
Dir
 
Speed
knots
Gust
knots
hPa Trend Height
m
Period
s
Dir
30/11:30pm 13.9 WNW 14 20 1015.9 - 0.0 - Partly cloudy 10 - - - -
30/11:00pm 14.3 WNW 12 19 1015.7 - 0.0 - Partly cloudy 10 - - - -
30/10:30pm 14.1 W 12 19 1015.9 - 0.0 - Partly cloudy 10 - - - -
30/10:00pm 14.2 WNW 12 19 1015.6 - 0.0 - Partly cloudy 10 - - - -
30/09:30pm 14.1 WNW 13 20 1015.2 - 0.0 - Partly cloudy 10 - - - -
30/09:00pm 14.6 NW 15 20 1015.0 F 0.0 - Mostly cloudy 10 - - - -
30/08:30pm 14.8 NW 15 21 1015.1 - 0.0 - Partly cloudy 10 - - - -
30/08:00pm 14.7 NW 14 19 1015.4 - 0.0 - - 10 - - - -
30/07:30pm 15.0 NW 13 16 1015.6 - 0.0 - Partly cloudy 10 - - - -
30/07:00pm 15.3 NW 13 17 1015.7 - 0.0 - Partly cloudy 10 - - - -
30/06:30pm 15.4 NW 13 17 1015.7 - 0.0 - Partly cloudy 10 - - - -
30/06:00pm 16.1 NW 13 18 1015.4 F 0.0 - Mostly cloudy 10 - - - -
30/05:30pm 16.4 WNW 11 13 1015.6 - 0.0 - Partly cloudy 10 - - - -
30/05:00pm 17.1 WNW 11 16 1015.3 - 0.0 - Partly cloudy 10 - - - -
30/04:30pm 17.7 WNW 11 15 1015.1 - 0.0 - Partly cloudy 10 - - - -
30/04:00pm 18.4 WNW 16 23 1015.2 - 0.0 - Mostly clear 10 - - - -
30/03:39pm 18.5 WNW 17 24 1014.9 - 0.0 - Mostly clear 10 - - - -
30/03:30pm 18.2 W 8 13 1015.0 - 0.0 - Mostly clear 10 - - - -
30/03:00pm 18.1 WSW 10 15 1015.2 F 0.0 Fine Partly cloudy 25 - - - -
30/02:30pm 19.9 WNW 13 20 1015.0 - 0.0 - Partly cloudy 10 - - - -
30/02:00pm 19.6 WNW 15 21 1015.3 - 0.0 - Partly cloudy 10 - - - -
30/01:30pm 18.5 WNW 16 25 1015.5 - 0.0 - Partly cloudy 10 - - - -
30/01:26pm 18.0 WNW 15 25 1015.6 - 0.0 - Partly cloudy 10 - - - -
30/01:00pm 18.5 WNW 15 22 1016.0 - 0.0 - Mostly cloudy 10 - - - -

Other Formats:

Comma delimited format used in spreadsheet applications
http://www.bom.gov.au/fwo/IDW60701/IDW60701.94638.axf

JavaScript Object Notation format (JSON) in row-major order
http://www.bom.gov.au/fwo/IDW60701/IDW60701.94638.json